sensor_id;sensor_type;location;lat;lon;timestamp;temperature;humidity
8152;DHT22;4117;53.622;9.958;2023-07-20T00:01:33;14.50;1.00
8152;DHT22;4117;53.622;9.958;2023-07-20T00:04:00;14.60;1.00
8152;DHT22;4117;53.622;9.958;2023-07-20T00:06:27;14.50;1.00
8152;DHT22;4117;53.622;9.958;2023-07-20T00:08:54;14.50;1.00
8152;DHT22;4117;53.622;9.958;2023-07-20T00:11:26;14.50;1.00
8152;DHT22;4117;53.622;9.958;2023-07-20T00:13:53;14.60;1.00
8152;DHT22;4117;53.622;9.958;2023-07-20T00:16:21;14.50;1.00
8152;DHT22;4117;53.622;9.958;2023-07-20T00:18:48;14.50;1.00
8152;DHT22;4117;53.622;9.958;2023-07-20T00:21:15;14.50;1.00
8152;DHT22;4117;53.622;9.958;2023-07-20T00:23:42;14.60;1.00
8152;DHT22;4117;53.622;9.958;2023-07-20T00:26:09;14.50;1.00
8152;DHT22;4117;53.622;9.958;2023-07-20T00:28:38;14.60;1.00
8152;DHT22;4117;53.622;9.958;2023-07-20T00:31:05;14.60;1.00
8152;DHT22;4117;53.622;9.958;2023-07-20T00:33:32;14.60;1.00
8152;DHT22;4117;53.622;9.958;2023-07-20T00:35:59;14.60;1.00
8152;DHT22;4117;53.622;9.958;2023-07-20T00:38:26;14.50;1.00
8152;DHT22;4117;53.622;9.958;2023-07-20T00:40:53;14.50;1.00
8152;DHT22;4117;53.622;9.958;2023-07-20T00:43:20;14.60;1.00
8152;DHT22;4117;53.622;9.958;2023-07-20T00:45:48;14.60;1.00
8152;DHT22;4117;53.622;9.958;2023-07-20T00:48:15;14.50;1.00
8152;DHT22;4117;53.622;9.958;2023-07-20T00:50:43;14.50;1.00
8152;DHT22;4117;53.622;9.958;2023-07-20T00:53:10;14.50;1.00
8152;DHT22;4117;53.622;9.958;2023-07-20T00:55:37;14.50;1.00
8152;DHT22;4117;53.622;9.958;2023-07-20T00:58:05;14.50;1.00
8152;DHT22;4117;53.622;9.958;2023-07-20T01:00:32;14.50;1.00
8152;DHT22;4117;53.622;9.958;2023-07-20T01:03:01;14.50;1.00
8152;DHT22;4117;53.622;9.958;2023-07-20T01:05:38;14.50;1.00
8152;DHT22;4117;53.622;9.958;2023-07-20T01:08:12;14.50;1.00
8152;DHT22;4117;53.622;9.958;2023-07-20T01:11:04;14.50;1.00
8152;DHT22;4117;53.622;9.958;2023-07-20T01:13:33;14.50;1.00
8152;DHT22;4117;53.622;9.958;2023-07-20T01:16:01;14.50;1.00
8152;DHT22;4117;53.622;9.958;2023-07-20T01:18:29;14.50;1.00
8152;DHT22;4117;53.622;9.958;2023-07-20T01:20:59;14.50;1.00
8152;DHT22;4117;53.622;9.958;2023-07-20T01:23:50;14.40;1.00
8152;DHT22;4117;53.622;9.958;2023-07-20T01:26:37;14.40;1.00
8152;DHT22;4117;53.622;9.958;2023-07-20T01:29:17;14.40;1.00
8152;DHT22;4117;53.622;9.958;2023-07-20T01:31:51;14.40;1.00
8152;DHT22;4117;53.622;9.958;2023-07-20T01:34:19;14.40;1.00
8152;DHT22;4117;53.622;9.958;2023-07-20T01:36:50;14.40;1.00
8152;DHT22;4117;53.622;9.958;2023-07-20T01:39:17;14.40;1.00
8152;DHT22;4117;53.622;9.958;2023-07-20T01:41:45;14.40;1.00
8152;DHT22;4117;53.622;9.958;2023-07-20T01:44:12;14.40;1.00
8152;DHT22;4117;53.622;9.958;2023-07-20T01:46:39;14.40;1.00
8152;DHT22;4117;53.622;9.958;2023-07-20T01:49:08;14.40;1.00
8152;DHT22;4117;53.622;9.958;2023-07-20T01:51:35;14.40;1.00
8152;DHT22;4117;53.622;9.958;2023-07-20T01:54:02;14.40;1.00
8152;DHT22;4117;53.622;9.958;2023-07-20T01:56:29;14.40;1.00
8152;DHT22;4117;53.622;9.958;2023-07-20T01:58:56;14.40;1.00
8152;DHT22;4117;53.622;9.958;2023-07-20T02:01:23;14.40;1.00
8152;DHT22;4117;53.622;9.958;2023-07-20T02:03:50;14.30;1.00
8152;DHT22;4117;53.622;9.958;2023-07-20T02:06:18;14.30;1.00
8152;DHT22;4117;53.622;9.958;2023-07-20T02:08:45;14.30;1.00
8152;DHT22;4117;53.622;9.958;2023-07-20T02:11:12;14.30;1.00
8152;DHT22;4117;53.622;9.958;2023-07-20T02:13:39;14.30;1.00
8152;DHT22;4117;53.622;9.958;2023-07-20T02:16:05;14.30;1.00
8152;DHT22;4117;53.622;9.958;2023-07-20T02:18:32;14.30;1.00
8152;DHT22;4117;53.622;9.958;2023-07-20T02:21:00;14.30;1.00
8152;DHT22;4117;53.622;9.958;2023-07-20T02:23:29;14.30;1.00
8152;DHT22;4117;53.622;9.958;2023-07-20T02:25:56;14.30;1.00
8152;DHT22;4117;53.622;9.958;2023-07-20T02:28:22;14.30;1.00
8152;DHT22;4117;53.622;9.958;2023-07-20T02:30:50;14.30;1.00
8152;DHT22;4117;53.622;9.958;2023-07-20T02:33:17;14.30;1.00
8152;DHT22;4117;53.622;9.958;2023-07-20T02:35:43;14.30;1.00
8152;DHT22;4117;53.622;9.958;2023-07-20T02:38:10;14.30;1.00
8152;DHT22;4117;53.622;9.958;2023-07-20T02:40:39;14.20;1.00
8152;DHT22;4117;53.622;9.958;2023-07-20T02:43:06;14.20;1.00
8152;DHT22;4117;53.622;9.958;2023-07-20T02:45:33;14.20;1.00
8152;DHT22;4117;53.622;9.958;2023-07-20T02:47:59;14.20;1.00
8152;DHT22;4117;53.622;9.958;2023-07-20T02:50:28;14.20;1.00
8152;DHT22;4117;53.622;9.958;2023-07-20T02:52:55;14.20;1.00
8152;DHT22;4117;53.622;9.958;2023-07-20T02:55:22;14.20;1.00
8152;DHT22;4117;53.622;9.958;2023-07-20T02:57:50;14.20;1.00
8152;DHT22;4117;53.622;9.958;2023-07-20T03:00:17;14.20;1.00
8152;DHT22;4117;53.622;9.958;2023-07-20T03:02:44;14.20;1.00
8152;DHT22;4117;53.622;9.958;2023-07-20T03:05:13;14.20;1.00
8152;DHT22;4117;53.622;9.958;2023-07-20T03:07:40;14.20;1.00
8152;DHT22;4117;53.622;9.958;2023-07-20T03:10:09;14.20;1.00
8152;DHT22;4117;53.622;9.958;2023-07-20T03:12:36;14.20;1.00
8152;DHT22;4117;53.622;9.958;2023-07-20T03:15:06;14.20;1.00
8152;DHT22;4117;53.622;9.958;2023-07-20T03:17:33;14.20;1.00
8152;DHT22;4117;53.622;9.958;2023-07-20T03:20:00;14.20;1.00
8152;DHT22;4117;53.622;9.958;2023-07-20T03:22:28;14.20;1.00
8152;DHT22;4117;53.622;9.958;2023-07-20T03:24:55;14.20;1.00
8152;DHT22;4117;53.622;9.958;2023-07-20T03:27:22;14.20;1.40
8152;DHT22;4117;53.622;9.958;2023-07-20T03:29:49;14.10;1.00
8152;DHT22;4117;53.622;9.958;2023-07-20T03:32:17;14.20;1.00
8152;DHT22;4117;53.622;9.958;2023-07-20T03:34:44;14.20;1.00
8152;DHT22;4117;53.622;9.958;2023-07-20T03:37:12;14.10;1.00
8152;DHT22;4117;53.622;9.958;2023-07-20T03:39:39;14.10;1.00
8152;DHT22;4117;53.622;9.958;2023-07-20T03:42:06;14.10;1.00
8152;DHT22;4117;53.622;9.958;2023-07-20T03:44:33;14.10;2.20
8152;DHT22;4117;53.622;9.958;2023-07-20T03:47:00;14.10;1.00
8152;DHT22;4117;53.622;9.958;2023-07-20T03:49:30;14.20;1.40
8152;DHT22;4117;53.622;9.958;2023-07-20T03:51:57;14.10;2.30
8152;DHT22;4117;53.622;9.958;2023-07-20T03:54:24;14.10;2.40
8152;DHT22;4117;53.622;9.958;2023-07-20T03:56:51;14.10;2.90
8152;DHT22;4117;53.622;9.958;2023-07-20T03:59:18;14.10;2.40
8152;DHT22;4117;53.622;9.958;2023-07-20T04:01:45;14.10;2.40
8152;DHT22;4117;53.622;9.958;2023-07-20T04:04:12;14.10;2.30
8152;DHT22;4117;53.622;9.958;2023-07-20T04:06:40;14.10;3.80
8152;DHT22;4117;53.622;9.958;2023-07-20T04:09:11;14.10;4.10
8152;DHT22;4117;53.622;9.958;2023-07-20T04:11:39;14.10;3.70
8152;DHT22;4117;53.622;9.958;2023-07-20T04:14:06;14.10;3.90
8152;DHT22;4117;53.622;9.958;2023-07-20T04:16:33;14.10;6.30
8152;DHT22;4117;53.622;9.958;2023-07-20T04:19:00;14.10;4.30
8152;DHT22;4117;53.622;9.958;2023-07-20T04:21:27;14.10;6.60
8152;DHT22;4117;53.622;9.958;2023-07-20T04:23:56;14.10;5.60
8152;DHT22;4117;53.622;9.958;2023-07-20T04:26:23;14.10;6.30
8152;DHT22;4117;53.622;9.958;2023-07-20T04:28:50;14.10;7.50
8152;DHT22;4117;53.622;9.958;2023-07-20T04:31:18;14.10;7.20
8152;DHT22;4117;53.622;9.958;2023-07-20T04:33:45;14.10;7.90
8152;DHT22;4117;53.622;9.958;2023-07-20T04:36:12;14.10;5.50
8152;DHT22;4117;53.622;9.958;2023-07-20T04:38:41;14.10;7.90
8152;DHT22;4117;53.622;9.958;2023-07-20T04:41:10;14.10;7.90
8152;DHT22;4117;53.622;9.958;2023-07-20T04:43:41;14.10;7.90
8152;DHT22;4117;53.622;9.958;2023-07-20T04:46:08;14.10;10.20
8152;DHT22;4117;53.622;9.958;2023-07-20T04:48:36;14.10;10.50
8152;DHT22;4117;53.622;9.958;2023-07-20T04:51:03;14.10;12.50
8152;DHT22;4117;53.622;9.958;2023-07-20T04:53:30;14.10;13.70
8152;DHT22;4117;53.622;9.958;2023-07-20T04:55:57;14.10;14.80
8152;DHT22;4117;53.622;9.958;2023-07-20T04:58:26;14.20;15.20
8152;DHT22;4117;53.622;9.958;2023-07-20T05:00:53;14.20;17.10
8152;DHT22;4117;53.622;9.958;2023-07-20T05:03:20;14.20;18.30
8152;DHT22;4117;53.622;9.958;2023-07-20T05:05:47;14.20;18.70
8152;DHT22;4117;53.622;9.958;2023-07-20T05:08:15;14.20;18.70
8152;DHT22;4117;53.622;9.958;2023-07-20T05:10:42;14.30;18.80
8152;DHT22;4117;53.622;9.958;2023-07-20T05:13:09;14.30;18.80
8152;DHT22;4117;53.622;9.958;2023-07-20T05:15:37;14.30;18.80
8152;DHT22;4117;53.622;9.958;2023-07-20T05:18:04;14.30;18.80
8152;DHT22;4117;53.622;9.958;2023-07-20T05:20:31;14.30;18.80
8152;DHT22;4117;53.622;9.958;2023-07-20T05:22:59;14.30;18.80
8152;DHT22;4117;53.622;9.958;2023-07-20T05:25:26;14.40;18.90
8152;DHT22;4117;53.622;9.958;2023-07-20T05:27:53;14.40;18.90
8152;DHT22;4117;53.622;9.958;2023-07-20T05:30:21;14.40;18.90
8152;DHT22;4117;53.622;9.958;2023-07-20T05:32:50;14.40;18.90
8152;DHT22;4117;53.622;9.958;2023-07-20T05:35:19;14.40;18.90
8152;DHT22;4117;53.622;9.958;2023-07-20T05:37:46;14.40;18.90
8152;DHT22;4117;53.622;9.958;2023-07-20T05:40:14;14.50;18.90
8152;DHT22;4117;53.622;9.958;2023-07-20T05:42:44;14.50;20.20
8152;DHT22;4117;53.622;9.958;2023-07-20T05:45:12;14.50;19.80
8152;DHT22;4117;53.622;9.958;2023-07-20T05:47:39;14.50;19.30
8152;DHT22;4117;53.622;9.958;2023-07-20T05:50:08;14.50;19.00
8152;DHT22;4117;53.622;9.958;2023-07-20T05:52:35;14.50;19.10
8152;DHT22;4117;53.622;9.958;2023-07-20T05:55:03;14.50;18.90
8152;DHT22;4117;53.622;9.958;2023-07-20T05:57:30;14.60;19.00
8152;DHT22;4117;53.622;9.958;2023-07-20T05:59:57;14.70;19.10
8152;DHT22;4117;53.622;9.958;2023-07-20T06:02:24;14.70;19.00
8152;DHT22;4117;53.622;9.958;2023-07-20T06:04:51;14.70;14.70
8152;DHT22;4117;53.622;9.958;2023-07-20T06:07:21;14.60;16.40
8152;DHT22;4117;53.622;9.958;2023-07-20T06:09:48;14.70;19.40
8152;DHT22;4117;53.622;9.958;2023-07-20T06:12:15;14.70;19.00
8152;DHT22;4117;53.622;9.958;2023-07-20T06:14:42;14.80;18.80
8152;DHT22;4117;53.622;9.958;2023-07-20T06:17:09;14.80;13.80
8152;DHT22;4117;53.622;9.958;2023-07-20T06:19:36;14.80;10.50
8152;DHT22;4117;53.622;9.958;2023-07-20T06:22:04;14.90;8.50
8152;DHT22;4117;53.622;9.958;2023-07-20T06:24:32;14.80;8.40
8152;DHT22;4117;53.622;9.958;2023-07-20T06:26:59;14.90;8.50
8152;DHT22;4117;53.622;9.958;2023-07-20T06:29:26;14.90;9.00
8152;DHT22;4117;53.622;9.958;2023-07-20T06:31:54;14.90;8.50
8152;DHT22;4117;53.622;9.958;2023-07-20T06:34:21;14.90;1.00
8152;DHT22;4117;53.622;9.958;2023-07-20T06:36:48;14.90;1.00
8152;DHT22;4117;53.622;9.958;2023-07-20T06:39:15;15.00;2.90
8152;DHT22;4117;53.622;9.958;2023-07-20T06:41:43;15.00;1.00
8152;DHT22;4117;53.622;9.958;2023-07-20T06:44:10;15.00;2.30
8152;DHT22;4117;53.622;9.958;2023-07-20T06:46:37;15.10;1.00
8152;DHT22;4117;53.622;9.958;2023-07-20T06:49:06;15.10;1.20
8152;DHT22;4117;53.622;9.958;2023-07-20T06:51:34;15.10;1.00
8152;DHT22;4117;53.622;9.958;2023-07-20T06:54:01;15.10;1.00
8152;DHT22;4117;53.622;9.958;2023-07-20T06:56:30;15.20;1.00
8152;DHT22;4117;53.622;9.958;2023-07-20T06:58:58;15.20;1.00
8152;DHT22;4117;53.622;9.958;2023-07-20T07:01:25;15.20;1.00
8152;DHT22;4117;53.622;9.958;2023-07-20T07:03:52;15.10;1.00
8152;DHT22;4117;53.622;9.958;2023-07-20T07:06:19;15.10;1.00
8152;DHT22;4117;53.622;9.958;2023-07-20T07:08:48;15.00;1.00
8152;DHT22;4117;53.622;9.958;2023-07-20T07:11:15;15.00;1.00
8152;DHT22;4117;53.622;9.958;2023-07-20T07:13:41;15.00;1.00
8152;DHT22;4117;53.622;9.958;2023-07-20T07:16:10;14.90;1.00
8152;DHT22;4117;53.622;9.958;2023-07-20T07:18:37;15.00;1.00
8152;DHT22;4117;53.622;9.958;2023-07-20T07:21:05;15.10;1.00
8152;DHT22;4117;53.622;9.958;2023-07-20T07:23:32;15.20;1.00
8152;DHT22;4117;53.622;9.958;2023-07-20T07:25:59;15.20;1.00
8152;DHT22;4117;53.622;9.958;2023-07-20T07:28:27;15.20;1.00
8152;DHT22;4117;53.622;9.958;2023-07-20T07:30:55;15.20;1.00
8152;DHT22;4117;53.622;9.958;2023-07-20T07:33:24;15.10;1.00
8152;DHT22;4117;53.622;9.958;2023-07-20T07:35:52;15.00;1.00
8152;DHT22;4117;53.622;9.958;2023-07-20T07:38:19;14.90;1.00
8152;DHT22;4117;53.622;9.958;2023-07-20T07:40:46;14.90;1.00
8152;DHT22;4117;53.622;9.958;2023-07-20T07:43:13;14.80;1.00
8152;DHT22;4117;53.622;9.958;2023-07-20T07:45:40;14.90;1.00
8152;DHT22;4117;53.622;9.958;2023-07-20T07:48:08;14.90;1.00
8152;DHT22;4117;53.622;9.958;2023-07-20T07:50:38;15.00;1.00
8152;DHT22;4117;53.622;9.958;2023-07-20T07:53:06;15.10;1.00
8152;DHT22;4117;53.622;9.958;2023-07-20T07:55:35;15.30;1.00
8152;DHT22;4117;53.622;9.958;2023-07-20T07:58:02;15.40;1.00
8152;DHT22;4117;53.622;9.958;2023-07-20T08:00:29;15.40;1.00
8152;DHT22;4117;53.622;9.958;2023-07-20T08:02:56;15.40;1.00
8152;DHT22;4117;53.622;9.958;2023-07-20T08:05:24;15.40;1.00
8152;DHT22;4117;53.622;9.958;2023-07-20T08:07:53;15.50;1.00
8152;DHT22;4117;53.622;9.958;2023-07-20T08:10:19;15.50;1.00
8152;DHT22;4117;53.622;9.958;2023-07-20T08:12:46;15.60;1.00
8152;DHT22;4117;53.622;9.958;2023-07-20T08:15:14;15.60;1.00
8152;DHT22;4117;53.622;9.958;2023-07-20T08:17:41;15.60;1.00
8152;DHT22;4117;53.622;9.958;2023-07-20T08:20:09;15.70;1.00
8152;DHT22;4117;53.622;9.958;2023-07-20T08:22:38;15.70;1.00
8152;DHT22;4117;53.622;9.958;2023-07-20T08:25:07;15.70;1.00
8152;DHT22;4117;53.622;9.958;2023-07-20T08:27:34;15.70;1.00
8152;DHT22;4117;53.622;9.958;2023-07-20T08:30:01;15.70;1.00
8152;DHT22;4117;53.622;9.958;2023-07-20T08:32:28;15.70;1.00
8152;DHT22;4117;53.622;9.958;2023-07-20T08:34:55;15.80;1.00
8152;DHT22;4117;53.622;9.958;2023-07-20T08:37:22;15.90;1.00
8152;DHT22;4117;53.622;9.958;2023-07-20T08:39:49;15.90;1.00
8152;DHT22;4117;53.622;9.958;2023-07-20T08:42:18;15.90;1.00
8152;DHT22;4117;53.622;9.958;2023-07-20T08:44:46;15.90;1.00
8152;DHT22;4117;53.622;9.958;2023-07-20T08:47:16;16.00;1.00
8152;DHT22;4117;53.622;9.958;2023-07-20T08:49:43;16.00;1.00
8152;DHT22;4117;53.622;9.958;2023-07-20T08:52:11;16.00;1.00
8152;DHT22;4117;53.622;9.958;2023-07-20T08:54:39;16.00;1.00
8152;DHT22;4117;53.622;9.958;2023-07-20T08:57:07;16.00;1.00
8152;DHT22;4117;53.622;9.958;2023-07-20T08:59:37;16.10;1.00
8152;DHT22;4117;53.622;9.958;2023-07-20T09:02:05;16.00;1.00
8152;DHT22;4117;53.622;9.958;2023-07-20T09:04:35;16.10;1.00
8152;DHT22;4117;53.622;9.958;2023-07-20T09:07:02;16.20;1.00
8152;DHT22;4117;53.622;9.958;2023-07-20T09:09:29;16.20;1.00
8152;DHT22;4117;53.622;9.958;2023-07-20T09:11:56;16.20;1.00
8152;DHT22;4117;53.622;9.958;2023-07-20T09:14:24;16.30;1.00
8152;DHT22;4117;53.622;9.958;2023-07-20T09:16:53;16.30;1.00
8152;DHT22;4117;53.622;9.958;2023-07-20T09:19:20;16.30;1.00
8152;DHT22;4117;53.622;9.958;2023-07-20T09:21:50;16.20;1.00
8152;DHT22;4117;53.622;9.958;2023-07-20T09:24:18;15.90;1.00
8152;DHT22;4117;53.622;9.958;2023-07-20T09:26:47;15.70;1.00
8152;DHT22;4117;53.622;9.958;2023-07-20T09:29:18;15.60;1.00
8152;DHT22;4117;53.622;9.958;2023-07-20T09:31:59;15.50;1.00
8152;DHT22;4117;53.622;9.958;2023-07-20T09:34:28;15.60;1.00
8152;DHT22;4117;53.622;9.958;2023-07-20T09:36:56;15.60;1.00
8152;DHT22;4117;53.622;9.958;2023-07-20T09:39:23;15.70;1.00
8152;DHT22;4117;53.622;9.958;2023-07-20T09:41:51;15.70;1.00
8152;DHT22;4117;53.622;9.958;2023-07-20T09:44:18;15.80;1.00
8152;DHT22;4117;53.622;9.958;2023-07-20T09:46:46;15.90;1.00
8152;DHT22;4117;53.622;9.958;2023-07-20T09:49:14;16.00;1.00
8152;DHT22;4117;53.622;9.958;2023-07-20T09:51:44;16.10;1.00
8152;DHT22;4117;53.622;9.958;2023-07-20T09:54:13;16.20;1.00
8152;DHT22;4117;53.622;9.958;2023-07-20T09:56:40;16.20;1.00
8152;DHT22;4117;53.622;9.958;2023-07-20T09:59:08;16.20;1.00
8152;DHT22;4117;53.622;9.958;2023-07-20T10:01:37;16.30;1.00
8152;DHT22;4117;53.622;9.958;2023-07-20T10:04:07;16.40;1.00
8152;DHT22;4117;53.622;9.958;2023-07-20T10:06:41;16.40;1.00
8152;DHT22;4117;53.622;9.958;2023-07-20T10:09:10;16.50;1.00
8152;DHT22;4117;53.622;9.958;2023-07-20T10:11:43;16.70;1.00
8152;DHT22;4117;53.622;9.958;2023-07-20T10:14:12;16.80;1.00
8152;DHT22;4117;53.622;9.958;2023-07-20T10:16:44;16.80;1.00
8152;DHT22;4117;53.622;9.958;2023-07-20T10:19:17;16.80;1.00
8152;DHT22;4117;53.622;9.958;2023-07-20T10:21:56;16.70;1.00
8152;DHT22;4117;53.622;9.958;2023-07-20T10:24:24;16.70;1.00
8152;DHT22;4117;53.622;9.958;2023-07-20T10:26:51;16.80;1.00
8152;DHT22;4117;53.622;9.958;2023-07-20T10:29:19;16.80;1.00
8152;DHT22;4117;53.622;9.958;2023-07-20T10:31:46;16.70;1.00
8152;DHT22;4117;53.622;9.958;2023-07-20T10:34:13;16.60;1.00
8152;DHT22;4117;53.622;9.958;2023-07-20T10:36:44;16.60;1.00
8152;DHT22;4117;53.622;9.958;2023-07-20T10:39:24;16.70;1.00
8152;DHT22;4117;53.622;9.958;2023-07-20T10:42:00;16.90;1.00
8152;DHT22;4117;53.622;9.958;2023-07-20T10:44:28;17.00;1.00
8152;DHT22;4117;53.622;9.958;2023-07-20T10:46:59;16.90;1.00
8152;DHT22;4117;53.622;9.958;2023-07-20T10:49:27;16.90;1.00
8152;DHT22;4117;53.622;9.958;2023-07-20T10:51:58;16.90;1.00
8152;DHT22;4117;53.622;9.958;2023-07-20T10:54:47;16.80;1.00
8152;DHT22;4117;53.622;9.958;2023-07-20T10:57:29;16.80;1.00
8152;DHT22;4117;53.622;9.958;2023-07-20T11:00:10;17.10;1.00
8152;DHT22;4117;53.622;9.958;2023-07-20T11:02:48;17.30;1.00
8152;DHT22;4117;53.622;9.958;2023-07-20T11:05:35;17.20;1.00
8152;DHT22;4117;53.622;9.958;2023-07-20T11:08:04;17.10;1.00
8152;DHT22;4117;53.622;9.958;2023-07-20T11:10:33;16.90;1.00
8152;DHT22;4117;53.622;9.958;2023-07-20T11:13:20;16.80;1.00
8152;DHT22;4117;53.622;9.958;2023-07-20T11:16:01;17.10;1.00
8152;DHT22;4117;53.622;9.958;2023-07-20T11:18:29;17.10;1.00
8152;DHT22;4117;53.622;9.958;2023-07-20T11:20:56;17.10;1.00
8152;DHT22;4117;53.622;9.958;2023-07-20T11:23:23;17.10;1.00
8152;DHT22;4117;53.622;9.958;2023-07-20T11:25:52;17.10;1.00
8152;DHT22;4117;53.622;9.958;2023-07-20T11:28:19;17.10;1.00
8152;DHT22;4117;53.622;9.958;2023-07-20T11:30:51;17.10;1.00
8152;DHT22;4117;53.622;9.958;2023-07-20T11:33:19;17.20;1.00
8152;DHT22;4117;53.622;9.958;2023-07-20T11:35:46;17.30;1.00
8152;DHT22;4117;53.622;9.958;2023-07-20T11:38:13;17.30;1.00
8152;DHT22;4117;53.622;9.958;2023-07-20T11:40:43;17.40;1.00
8152;DHT22;4117;53.622;9.958;2023-07-20T11:43:12;17.40;1.00
8152;DHT22;4117;53.622;9.958;2023-07-20T11:45:40;17.50;1.00
8152;DHT22;4117;53.622;9.958;2023-07-20T11:48:07;17.60;1.00
8152;DHT22;4117;53.622;9.958;2023-07-20T11:50:38;17.70;1.00
8152;DHT22;4117;53.622;9.958;2023-07-20T11:53:05;17.70;1.00
8152;DHT22;4117;53.622;9.958;2023-07-20T11:55:33;17.80;1.00
8152;DHT22;4117;53.622;9.958;2023-07-20T11:58:04;17.80;1.00
8152;DHT22;4117;53.622;9.958;2023-07-20T12:00:33;17.70;1.00
8152;DHT22;4117;53.622;9.958;2023-07-20T12:03:00;17.70;1.00
8152;DHT22;4117;53.622;9.958;2023-07-20T12:05:27;17.70;1.00
8152;DHT22;4117;53.622;9.958;2023-07-20T12:07:55;17.70;1.00
8152;DHT22;4117;53.622;9.958;2023-07-20T12:10:27;17.60;1.00
8152;DHT22;4117;53.622;9.958;2023-07-20T12:13:01;17.50;1.00
8152;DHT22;4117;53.622;9.958;2023-07-20T12:15:28;17.40;1.00
8152;DHT22;4117;53.622;9.958;2023-07-20T12:18:00;17.40;1.00
8152;DHT22;4117;53.622;9.958;2023-07-20T12:20:28;17.40;1.00
8152;DHT22;4117;53.622;9.958;2023-07-20T12:22:57;17.30;1.00
8152;DHT22;4117;53.622;9.958;2023-07-20T12:25:33;17.30;1.00
8152;DHT22;4117;53.622;9.958;2023-07-20T12:28:01;17.20;1.00
8152;DHT22;4117;53.622;9.958;2023-07-20T12:30:29;17.30;1.00
8152;DHT22;4117;53.622;9.958;2023-07-20T12:32:58;17.30;1.00
8152;DHT22;4117;53.622;9.958;2023-07-20T12:35:25;17.20;1.00
8152;DHT22;4117;53.622;9.958;2023-07-20T12:37:52;17.10;1.00
8152;DHT22;4117;53.622;9.958;2023-07-20T12:40:20;17.10;1.00
8152;DHT22;4117;53.622;9.958;2023-07-20T12:42:47;17.10;1.00
8152;DHT22;4117;53.622;9.958;2023-07-20T12:45:14;17.10;1.00
8152;DHT22;4117;53.622;9.958;2023-07-20T12:47:41;17.10;1.00
8152;DHT22;4117;53.622;9.958;2023-07-20T12:50:11;17.20;1.00
8152;DHT22;4117;53.622;9.958;2023-07-20T12:52:39;17.30;1.00
8152;DHT22;4117;53.622;9.958;2023-07-20T12:55:07;17.40;1.00
8152;DHT22;4117;53.622;9.958;2023-07-20T12:57:34;17.40;1.00
8152;DHT22;4117;53.622;9.958;2023-07-20T13:00:02;17.50;1.00
8152;DHT22;4117;53.622;9.958;2023-07-20T13:02:30;17.50;1.00
8152;DHT22;4117;53.622;9.958;2023-07-20T13:04:57;17.50;1.00
8152;DHT22;4117;53.622;9.958;2023-07-20T13:07:31;17.50;1.00
8152;DHT22;4117;53.622;9.958;2023-07-20T13:09:59;17.50;1.00
8152;DHT22;4117;53.622;9.958;2023-07-20T13:12:26;17.50;1.00
8152;DHT22;4117;53.622;9.958;2023-07-20T13:14:54;17.50;1.00
8152;DHT22;4117;53.622;9.958;2023-07-20T13:17:22;17.60;1.00
8152;DHT22;4117;53.622;9.958;2023-07-20T13:19:49;17.60;1.00
8152;DHT22;4117;53.622;9.958;2023-07-20T13:22:16;17.90;1.00
8152;DHT22;4117;53.622;9.958;2023-07-20T13:24:46;18.10;1.00
8152;DHT22;4117;53.622;9.958;2023-07-20T13:27:14;18.10;1.00
8152;DHT22;4117;53.622;9.958;2023-07-20T13:29:41;18.20;1.00
8152;DHT22;4117;53.622;9.958;2023-07-20T13:32:09;18.10;1.00
8152;DHT22;4117;53.622;9.958;2023-07-20T13:34:36;18.20;1.00
8152;DHT22;4117;53.622;9.958;2023-07-20T13:37:04;18.10;1.00
8152;DHT22;4117;53.622;9.958;2023-07-20T13:39:31;18.00;1.00
8152;DHT22;4117;53.622;9.958;2023-07-20T13:42:00;17.90;1.00
8152;DHT22;4117;53.622;9.958;2023-07-20T13:44:29;18.00;1.00
8152;DHT22;4117;53.622;9.958;2023-07-20T13:46:56;18.10;1.00
8152;DHT22;4117;53.622;9.958;2023-07-20T13:49:24;18.20;1.00
8152;DHT22;4117;53.622;9.958;2023-07-20T13:51:51;18.30;1.00
8152;DHT22;4117;53.622;9.958;2023-07-20T13:54:18;18.40;1.00
8152;DHT22;4117;53.622;9.958;2023-07-20T13:56:45;18.40;1.00
8152;DHT22;4117;53.622;9.958;2023-07-20T13:59:14;18.40;1.00
8152;DHT22;4117;53.622;9.958;2023-07-20T14:01:41;18.40;1.00
8152;DHT22;4117;53.622;9.958;2023-07-20T14:04:10;18.40;1.00
8152;DHT22;4117;53.622;9.958;2023-07-20T14:06:37;18.40;1.00
8152;DHT22;4117;53.622;9.958;2023-07-20T14:09:04;18.30;1.00
8152;DHT22;4117;53.622;9.958;2023-07-20T14:11:31;18.10;1.00
8152;DHT22;4117;53.622;9.958;2023-07-20T14:13:58;18.00;1.00
8152;DHT22;4117;53.622;9.958;2023-07-20T14:16:27;18.20;1.00
8152;DHT22;4117;53.622;9.958;2023-07-20T14:18:54;18.50;1.00
8152;DHT22;4117;53.622;9.958;2023-07-20T14:21:21;18.40;1.00
8152;DHT22;4117;53.622;9.958;2023-07-20T14:23:50;18.30;1.00
8152;DHT22;4117;53.622;9.958;2023-07-20T14:26:18;18.30;1.00
8152;DHT22;4117;53.622;9.958;2023-07-20T14:28:45;18.20;1.00
8152;DHT22;4117;53.622;9.958;2023-07-20T14:31:12;18.10;1.00
8152;DHT22;4117;53.622;9.958;2023-07-20T14:33:41;18.10;1.00
8152;DHT22;4117;53.622;9.958;2023-07-20T14:36:08;18.30;1.00
8152;DHT22;4117;53.622;9.958;2023-07-20T14:38:35;18.50;1.00
8152;DHT22;4117;53.622;9.958;2023-07-20T14:41:03;18.60;1.00
8152;DHT22;4117;53.622;9.958;2023-07-20T14:43:31;18.60;1.00
8152;DHT22;4117;53.622;9.958;2023-07-20T14:45:59;18.80;1.00
8152;DHT22;4117;53.622;9.958;2023-07-20T14:48:29;18.80;1.00
8152;DHT22;4117;53.622;9.958;2023-07-20T14:50:57;18.70;1.00
8152;DHT22;4117;53.622;9.958;2023-07-20T14:53:26;18.80;1.00
8152;DHT22;4117;53.622;9.958;2023-07-20T14:55:59;18.70;1.00
8152;DHT22;4117;53.622;9.958;2023-07-20T14:58:27;18.70;1.00
8152;DHT22;4117;53.622;9.958;2023-07-20T15:00:54;18.70;1.00
8152;DHT22;4117;53.622;9.958;2023-07-20T15:03:21;18.70;1.00
8152;DHT22;4117;53.622;9.958;2023-07-20T15:05:48;18.80;1.00
8152;DHT22;4117;53.622;9.958;2023-07-20T15:08:18;18.80;1.00
8152;DHT22;4117;53.622;9.958;2023-07-20T15:10:45;18.80;1.00
8152;DHT22;4117;53.622;9.958;2023-07-20T15:13:13;19.00;1.00
8152;DHT22;4117;53.622;9.958;2023-07-20T15:15:40;19.20;1.00
8152;DHT22;4117;53.622;9.958;2023-07-20T15:18:07;19.20;1.00
8152;DHT22;4117;53.622;9.958;2023-07-20T15:20:34;18.90;1.00
8152;DHT22;4117;53.622;9.958;2023-07-20T15:23:01;18.80;1.00
8152;DHT22;4117;53.622;9.958;2023-07-20T15:25:28;18.80;1.00
8152;DHT22;4117;53.622;9.958;2023-07-20T15:27:56;18.80;1.00
8152;DHT22;4117;53.622;9.958;2023-07-20T15:30:23;18.80;1.00
8152;DHT22;4117;53.622;9.958;2023-07-20T15:32:50;18.90;1.00
8152;DHT22;4117;53.622;9.958;2023-07-20T15:35:17;18.90;1.00
8152;DHT22;4117;53.622;9.958;2023-07-20T15:37:44;18.90;1.00
8152;DHT22;4117;53.622;9.958;2023-07-20T15:40:12;19.00;1.00
8152;DHT22;4117;53.622;9.958;2023-07-20T15:42:40;19.10;1.00
8152;DHT22;4117;53.622;9.958;2023-07-20T15:45:09;19.10;1.00
8152;DHT22;4117;53.622;9.958;2023-07-20T15:47:37;18.90;1.00
8152;DHT22;4117;53.622;9.958;2023-07-20T15:50:06;18.80;1.00
8152;DHT22;4117;53.622;9.958;2023-07-20T15:52:33;18.90;1.00
8152;DHT22;4117;53.622;9.958;2023-07-20T15:55:00;18.80;1.00
8152;DHT22;4117;53.622;9.958;2023-07-20T15:57:30;18.70;1.00
8152;DHT22;4117;53.622;9.958;2023-07-20T15:59:58;18.70;1.00
8152;DHT22;4117;53.622;9.958;2023-07-20T16:02:25;18.90;1.00
8152;DHT22;4117;53.622;9.958;2023-07-20T16:04:52;19.00;1.00
8152;DHT22;4117;53.622;9.958;2023-07-20T16:07:20;18.90;1.00
8152;DHT22;4117;53.622;9.958;2023-07-20T16:09:47;19.00;1.00
8152;DHT22;4117;53.622;9.958;2023-07-20T16:12:15;19.00;1.00
8152;DHT22;4117;53.622;9.958;2023-07-20T16:14:42;19.00;1.00
8152;DHT22;4117;53.622;9.958;2023-07-20T16:17:12;19.00;1.00
8152;DHT22;4117;53.622;9.958;2023-07-20T16:19:39;19.10;1.00
8152;DHT22;4117;53.622;9.958;2023-07-20T16:22:06;19.00;1.00
8152;DHT22;4117;53.622;9.958;2023-07-20T16:24:34;18.90;1.00